createdAt,value
2023-02-16T00:01:26.558Z,-0.40
2023-02-16T00:03:55.732Z,-0.40
2023-02-16T00:06:25.780Z,-0.40
2023-02-16T00:08:55.422Z,-0.40
2023-02-16T00:11:45.946Z,-0.40
2023-02-16T00:14:15.066Z,-0.50
2023-02-16T00:16:43.339Z,-0.50
2023-02-16T00:19:19.692Z,-0.50
2023-02-16T00:21:49.739Z,-0.50
2023-02-16T00:24:17.826Z,-0.50
2023-02-16T00:26:46.506Z,-0.50
2023-02-16T00:29:21.411Z,-0.50
2023-02-16T00:31:49.498Z,-0.50
2023-02-16T00:34:27.620Z,-0.60
2023-02-16T00:36:58.565Z,-0.60
2023-02-16T00:39:27.511Z,-0.70
2023-02-16T00:41:57.510Z,-0.70
2023-02-16T00:44:32.905Z,-0.80
2023-02-16T00:47:03.870Z,-0.80
2023-02-16T00:49:31.753Z,-0.90
2023-02-16T00:52:00.979Z,-0.90
2023-02-16T00:54:30.932Z,-0.90
2023-02-16T00:56:59.910Z,-0.90
2023-02-16T00:59:27.796Z,-0.90
2023-02-16T01:01:57.318Z,-0.90
2023-02-16T01:04:25.450Z,-1.00
2023-02-16T01:07:10.671Z,-0.90
2023-02-16T01:09:57.519Z,-1.00
2023-02-16T01:12:25.394Z,-1.00
2023-02-16T01:14:55.574Z,-1.00
2023-02-16T01:17:24.483Z,-0.90
2023-02-16T01:19:52.414Z,-0.90
2023-02-16T01:22:20.318Z,-0.90
2023-02-16T01:24:49.551Z,-1.00
2023-02-16T01:27:17.431Z,-1.00
2023-02-16T01:29:45.327Z,-1.00
2023-02-16T01:32:14.075Z,-1.00
2023-02-16T01:34:42.627Z,-1.00
2023-02-16T01:37:15.955Z,-1.10
2023-02-16T01:39:43.862Z,-1.20
2023-02-16T01:42:27.516Z,-1.20
2023-02-16T01:44:59.913Z,-1.30
2023-02-16T01:47:36.427Z,-1.30
2023-02-16T01:50:15.867Z,-1.40
2023-02-16T01:52:45.433Z,-1.40
2023-02-16T01:55:21.256Z,-1.40
2023-02-16T01:57:53.211Z,-1.40
2023-02-16T02:00:29.232Z,-1.40
2023-02-16T02:03:20.392Z,-1.40
2023-02-16T02:05:48.330Z,-1.40
2023-02-16T02:08:22.606Z,-1.30
2023-02-16T02:11:08.851Z,-1.30
2023-02-16T02:13:42.707Z,-1.20
2023-02-16T02:16:11.903Z,-1.20
2023-02-16T02:18:39.771Z,-1.20
2023-02-16T02:21:44.977Z,-1.20
2023-02-16T02:24:46.768Z,-1.20
2023-02-16T02:27:23.306Z,-1.20
2023-02-16T02:30:16.948Z,-1.20
2023-02-16T02:33:04.734Z,-1.30
2023-02-16T02:35:41.671Z,-1.30
2023-02-16T02:38:16.220Z,-1.40
2023-02-16T02:40:55.786Z,-1.40
2023-02-16T02:43:30.269Z,-1.50
2023-02-16T02:46:04.573Z,-1.50
2023-02-16T02:48:33.427Z,-1.50
2023-02-16T02:51:21.562Z,-1.50
2023-02-16T02:54:14.602Z,-1.60
2023-02-16T02:57:04.307Z,-1.60
2023-02-16T03:00:05.734Z,-1.70
2023-02-16T03:02:35.558Z,-1.70
2023-02-16T03:05:05.882Z,-1.80
2023-02-16T03:07:47.452Z,-1.90
2023-02-16T03:10:35.263Z,-1.80
2023-02-16T03:13:04.696Z,-1.80
2023-02-16T03:15:35.721Z,-1.80
2023-02-16T03:18:23.435Z,-1.80
2023-02-16T03:21:09.482Z,-1.80
2023-02-16T03:23:57.272Z,-1.90
2023-02-16T03:26:44.161Z,-1.90
2023-02-16T03:29:23.010Z,-2.00
2023-02-16T03:31:54.819Z,-2.00
2023-02-16T03:34:23.916Z,-1.90
2023-02-16T03:36:54.869Z,-1.80
2023-02-16T03:39:22.659Z,-1.80
2023-02-16T03:41:53.040Z,-1.70
2023-02-16T03:44:21.325Z,-1.70
2023-02-16T03:46:49.968Z,-1.70
2023-02-16T03:49:19.785Z,-1.60
2023-02-16T03:51:47.802Z,-1.60
2023-02-16T03:54:15.613Z,-1.60
2023-02-16T03:56:43.408Z,-1.60
2023-02-16T03:59:11.214Z,-1.70
2023-02-16T04:01:38.999Z,-1.70
2023-02-16T04:04:06.781Z,-1.70
2023-02-16T04:06:35.928Z,-1.70
2023-02-16T04:09:03.782Z,-1.60
2023-02-16T04:11:49.113Z,-1.60
2023-02-16T04:14:17.077Z,-1.50
2023-02-16T04:16:45.945Z,-1.40
2023-02-16T04:19:13.746Z,-1.30
2023-02-16T04:21:43.341Z,-1.30
2023-02-16T04:24:11.220Z,-1.20
2023-02-16T04:26:38.985Z,-1.00
2023-02-16T04:29:06.811Z,-0.90
2023-02-16T04:31:34.653Z,-1.00
2023-02-16T04:34:02.494Z,-1.00
2023-02-16T04:36:31.453Z,-1.00
2023-02-16T04:39:00.666Z,-1.00
2023-02-16T04:41:28.543Z,-1.10
2023-02-16T04:43:56.370Z,-1.20
2023-02-16T04:46:24.433Z,-1.40
2023-02-16T04:48:52.274Z,-1.50
2023-02-16T04:51:20.283Z,-1.70
2023-02-16T04:53:48.064Z,-1.80
2023-02-16T04:56:17.707Z,-1.90
2023-02-16T04:58:45.476Z,-1.90
2023-02-16T05:01:20.273Z,-1.90
2023-02-16T05:03:48.247Z,-2.10
2023-02-16T05:06:16.190Z,-2.20
2023-02-16T05:08:44.054Z,-2.20
2023-02-16T05:11:29.676Z,-2.20
2023-02-16T05:14:17.101Z,-2.10
2023-02-16T05:16:46.159Z,-2.00
2023-02-16T05:19:14.180Z,-2.00
2023-02-16T05:21:42.051Z,-1.90
2023-02-16T05:24:11.297Z,-1.90
2023-02-16T05:26:40.195Z,-1.80
2023-02-16T05:29:09.371Z,-1.80
2023-02-16T05:31:37.302Z,-1.80
2023-02-16T05:34:05.165Z,-1.90
2023-02-16T05:36:32.947Z,-1.80
2023-02-16T05:39:00.746Z,-1.90
2023-02-16T05:41:28.577Z,-1.90
2023-02-16T05:44:00.284Z,-1.90
2023-02-16T05:46:32.475Z,-1.90
2023-02-16T05:49:00.403Z,-1.90
2023-02-16T05:51:28.826Z,-1.90
2023-02-16T05:53:56.611Z,-1.90
2023-02-16T05:56:24.432Z,-1.90
2023-02-16T05:58:52.460Z,-1.90
2023-02-16T06:01:20.775Z,-2.00
2023-02-16T06:03:49.926Z,-2.00
2023-02-16T06:06:17.825Z,-2.00
2023-02-16T06:08:45.937Z,-2.00
2023-02-16T06:11:27.950Z,-2.00
2023-02-16T06:13:58.097Z,-2.00
2023-02-16T06:16:27.035Z,-2.00
2023-02-16T06:18:57.019Z,-2.00
2023-02-16T06:21:25.693Z,-2.00
2023-02-16T06:23:53.693Z,-1.90
2023-02-16T06:26:22.021Z,-1.70
2023-02-16T06:28:49.806Z,-1.60
2023-02-16T06:31:17.814Z,-1.60
2023-02-16T06:33:47.572Z,-1.50
2023-02-16T06:36:16.860Z,-1.50
2023-02-16T06:38:45.419Z,-1.60
2023-02-16T06:41:13.553Z,-1.60
2023-02-16T06:43:41.313Z,-1.60
2023-02-16T06:46:10.278Z,-1.60
2023-02-16T06:48:38.059Z,-1.60
2023-02-16T06:51:06.815Z,-1.50
2023-02-16T06:53:36.008Z,-1.50
2023-02-16T06:56:03.859Z,-1.40
2023-02-16T06:58:31.650Z,-1.30
2023-02-16T07:00:59.448Z,-1.20
2023-02-16T07:03:27.374Z,-1.10
2023-02-16T07:05:55.164Z,-1.10
2023-02-16T07:08:23.235Z,-1.10
2023-02-16T07:10:54.721Z,-1.00
2023-02-16T07:13:22.964Z,-1.00
2023-02-16T07:15:50.856Z,-0.90
2023-02-16T07:18:18.661Z,-0.90
2023-02-16T07:20:46.412Z,-0.80
2023-02-16T07:23:14.186Z,-0.80
2023-02-16T07:25:41.947Z,-0.80
2023-02-16T07:28:11.042Z,-0.80
2023-02-16T07:30:38.876Z,-0.80
2023-02-16T07:33:06.813Z,-0.70
2023-02-16T07:35:34.670Z,-0.60
2023-02-16T07:38:02.505Z,-0.50
2023-02-16T07:40:30.251Z,-0.30
2023-02-16T07:43:01.041Z,0.00
2023-02-16T07:45:35.020Z,0.40
2023-02-16T07:48:03.429Z,1.00
2023-02-16T07:50:31.215Z,1.50
2023-02-16T07:52:59.034Z,1.80
2023-02-16T07:55:26.789Z,1.80
2023-02-16T07:57:57.712Z,1.70
2023-02-16T08:00:25.736Z,1.80
2023-02-16T08:02:55.072Z,1.80
2023-02-16T08:05:23.474Z,1.80
2023-02-16T08:07:51.219Z,2.00
2023-02-16T08:10:19.244Z,2.20
2023-02-16T08:12:47.209Z,2.40
2023-02-16T08:15:15.023Z,2.60
2023-02-16T08:17:43.425Z,3.00
2023-02-16T08:20:13.544Z,3.40
2023-02-16T08:22:41.419Z,3.90
2023-02-16T08:25:09.445Z,4.50
2023-02-16T08:27:37.219Z,5.00
2023-02-16T08:30:05.832Z,5.70
2023-02-16T08:32:33.621Z,6.50
2023-02-16T08:35:01.546Z,7.40
2023-02-16T08:37:30.707Z,8.50
2023-02-16T08:40:00.576Z,9.70
2023-02-16T08:42:28.396Z,11.20
2023-02-16T08:44:56.192Z,12.80
2023-02-16T08:47:24.272Z,14.40
2023-02-16T08:49:52.060Z,15.60
2023-02-16T08:52:19.880Z,16.50
2023-02-16T08:54:49.235Z,17.30
2023-02-16T08:57:18.577Z,17.90
2023-02-16T09:00:06.335Z,18.40
2023-02-16T09:02:34.398Z,18.90
2023-02-16T09:05:02.397Z,19.50
2023-02-16T09:07:34.796Z,19.90
2023-02-16T09:10:04.244Z,20.10
2023-02-16T09:12:35.223Z,20.30
2023-02-16T09:15:03.028Z,20.50
2023-02-16T09:17:30.995Z,21.00
2023-02-16T09:19:58.746Z,21.40
2023-02-16T09:22:26.964Z,22.00
2023-02-16T09:24:54.703Z,22.70
2023-02-16T09:27:24.553Z,23.40
2023-02-16T09:29:52.355Z,24.00
2023-02-16T09:32:20.283Z,24.60
2023-02-16T09:34:49.973Z,25.20
2023-02-16T09:37:17.761Z,25.70
2023-02-16T09:39:45.560Z,26.00
2023-02-16T09:42:26.685Z,26.40
2023-02-16T09:45:01.525Z,26.90
2023-02-16T09:47:32.895Z,27.10
2023-02-16T09:50:03.746Z,27.10
2023-02-16T09:52:36.843Z,27.10
2023-02-16T09:55:08.992Z,27.20
2023-02-16T09:57:59.279Z,27.60
2023-02-16T10:00:41.604Z,27.60
2023-02-16T10:03:20.979Z,27.30
2023-02-16T10:05:56.751Z,27.80
2023-02-16T10:08:30.187Z,28.00
2023-02-16T10:11:04.699Z,28.20
2023-02-16T10:13:41.541Z,27.30
2023-02-16T10:16:15.431Z,27.70
2023-02-16T10:18:49.227Z,28.20
2023-02-16T10:21:28.018Z,28.50
2023-02-16T10:23:59.327Z,28.70
2023-02-16T10:26:33.243Z,28.50
2023-02-16T10:29:07.724Z,27.80
2023-02-16T10:31:40.100Z,28.10
2023-02-16T10:34:21.362Z,28.40
2023-02-16T10:37:11.753Z,29.00
2023-02-16T10:39:46.203Z,29.20
2023-02-16T10:42:20.678Z,29.70
2023-02-16T10:44:53.251Z,30.00
2023-02-16T10:47:31.071Z,30.00
2023-02-16T10:49:59.386Z,30.40
2023-02-16T10:52:30.863Z,30.80
2023-02-16T10:54:58.705Z,30.70
2023-02-16T10:57:29.620Z,30.80
2023-02-16T11:00:03.709Z,30.80
2023-02-16T11:02:38.563Z,30.70
2023-02-16T11:05:32.061Z,30.70
2023-02-16T11:08:02.369Z,30.80
2023-02-16T11:10:40.117Z,30.30
2023-02-16T11:13:11.318Z,30.20
2023-02-16T11:15:40.773Z,30.30
2023-02-16T11:18:22.610Z,30.10
2023-02-16T11:20:55.401Z,30.30
2023-02-16T11:23:26.742Z,30.70
2023-02-16T11:26:02.925Z,31.00
2023-02-16T11:28:34.010Z,31.10
2023-02-16T11:31:12.207Z,30.90
2023-02-16T11:33:41.377Z,29.90
2023-02-16T11:36:21.861Z,29.20
2023-02-16T11:39:01.780Z,28.80
2023-02-16T11:41:30.366Z,28.40
2023-02-16T11:43:59.175Z,27.80
2023-02-16T11:46:28.764Z,28.30
2023-02-16T11:48:56.833Z,28.90
2023-02-16T11:51:33.629Z,29.40
2023-02-16T11:54:03.896Z,29.30
2023-02-16T11:56:37.787Z,29.00
2023-02-16T11:59:13.759Z,28.10
2023-02-16T12:01:55.796Z,27.20
2023-02-16T12:04:38.357Z,26.10
2023-02-16T12:07:15.476Z,25.80
2023-02-16T12:09:50.814Z,25.20
2023-02-16T12:12:21.727Z,24.50
2023-02-16T12:14:59.076Z,23.90
2023-02-16T12:17:45.267Z,23.50
2023-02-16T12:20:27.314Z,23.70
2023-02-16T12:23:03.459Z,24.60
2023-02-16T12:25:38.188Z,25.50
2023-02-16T12:28:15.828Z,26.20
2023-02-16T12:30:53.919Z,26.30
2023-02-16T12:33:43.192Z,26.10
2023-02-16T12:36:35.805Z,26.20
2023-02-16T12:39:13.566Z,26.50
2023-02-16T12:41:50.940Z,26.80
2023-02-16T12:44:25.737Z,27.00
2023-02-16T12:47:02.731Z,27.30
2023-02-16T12:49:36.830Z,27.60
2023-02-16T12:52:11.105Z,27.80
2023-02-16T12:54:43.906Z,28.20
2023-02-16T12:57:15.335Z,28.50
2023-02-16T12:59:48.620Z,28.60
2023-02-16T13:02:21.442Z,28.80
2023-02-16T13:04:57.167Z,29.00
2023-02-16T13:07:32.475Z,29.20
2023-02-16T13:10:05.609Z,29.30
2023-02-16T13:12:38.051Z,29.30
2023-02-16T13:15:14.176Z,28.90
2023-02-16T13:17:46.565Z,28.60
2023-02-16T13:20:18.042Z,28.60
2023-02-16T13:23:05.067Z,28.40
2023-02-16T13:25:52.608Z,28.40
2023-02-16T13:28:39.819Z,28.30
2023-02-16T13:31:22.915Z,28.30
2023-02-16T13:34:08.729Z,28.10
2023-02-16T13:36:59.445Z,27.60
2023-02-16T13:39:39.608Z,27.00
2023-02-16T13:42:29.216Z,26.50
2023-02-16T13:44:59.353Z,26.10
2023-02-16T13:47:29.924Z,25.80
2023-02-16T13:49:59.554Z,25.30
2023-02-16T13:52:33.993Z,24.70
2023-02-16T13:55:04.587Z,24.20
2023-02-16T13:58:02.263Z,23.30
2023-02-16T14:00:33.470Z,22.80
2023-02-16T14:03:04.018Z,23.00
2023-02-16T14:05:35.698Z,22.80
2023-02-16T14:08:20.527Z,21.40
2023-02-16T14:11:03.754Z,20.50
2023-02-16T14:13:34.780Z,20.20
2023-02-16T14:16:09.132Z,20.10
2023-02-16T14:18:43.022Z,19.90
2023-02-16T14:21:32.542Z,19.50
2023-02-16T14:24:04.003Z,18.90
2023-02-16T14:26:32.828Z,18.30
2023-02-16T14:29:12.349Z,17.70
2023-02-16T14:31:45.289Z,17.10
2023-02-16T14:34:19.093Z,16.50
2023-02-16T14:37:24.135Z,16.00
2023-02-16T14:40:07.395Z,15.50
2023-02-16T14:42:36.639Z,14.90
2023-02-16T14:45:21.519Z,14.30
2023-02-16T14:47:59.890Z,14.00
2023-02-16T14:50:39.043Z,13.60
2023-02-16T14:53:42.405Z,13.40
2023-02-16T14:56:38.027Z,13.20
2023-02-16T14:59:12.942Z,13.00
2023-02-16T15:01:42.575Z,12.80
2023-02-16T15:04:11.817Z,12.70
2023-02-16T15:06:42.670Z,12.60
2023-02-16T15:09:17.523Z,12.50
2023-02-16T15:12:08.594Z,12.50
2023-02-16T15:14:42.699Z,12.40
2023-02-16T15:17:11.663Z,12.30
2023-02-16T15:19:39.775Z,12.20
2023-02-16T15:22:18.103Z,12.10
2023-02-16T15:24:56.752Z,12.00
2023-02-16T15:27:28.973Z,11.80
2023-02-16T15:30:10.166Z,11.70
2023-02-16T15:32:38.383Z,11.60
2023-02-16T15:35:14.324Z,11.50
2023-02-16T15:37:42.139Z,11.40
2023-02-16T15:40:25.870Z,11.20
2023-02-16T15:42:58.416Z,11.00
2023-02-16T15:45:32.423Z,10.90
2023-02-16T15:48:21.903Z,10.80
2023-02-16T15:50:51.658Z,10.70
2023-02-16T15:53:25.372Z,10.60
2023-02-16T15:55:53.303Z,10.60
2023-02-16T15:58:22.465Z,10.50
2023-02-16T16:00:50.358Z,10.40
2023-02-16T16:03:22.397Z,10.40
2023-02-16T16:06:04.797Z,10.40
2023-02-16T16:08:33.446Z,10.40
2023-02-16T16:11:01.839Z,10.30
2023-02-16T16:13:32.789Z,10.30
2023-02-16T16:16:04.555Z,10.20
2023-02-16T16:18:38.929Z,10.20
2023-02-16T16:21:23.941Z,10.10
2023-02-16T16:24:01.123Z,9.90
2023-02-16T16:26:31.641Z,9.90
2023-02-16T16:29:00.854Z,9.80
2023-02-16T16:31:46.448Z,9.70
2023-02-16T16:34:34.070Z,9.50
2023-02-16T16:37:03.771Z,9.50
2023-02-16T16:39:33.121Z,9.40
2023-02-16T16:42:23.081Z,9.30
2023-02-16T16:45:07.013Z,9.20
2023-02-16T16:47:38.549Z,9.10
2023-02-16T16:50:24.335Z,9.00
2023-02-16T16:52:52.343Z,8.80
2023-02-16T16:55:26.353Z,8.70
2023-02-16T16:57:56.222Z,8.60
2023-02-16T17:00:28.276Z,8.50
2023-02-16T17:02:56.123Z,8.40
2023-02-16T17:05:23.942Z,8.30
2023-02-16T17:07:51.778Z,8.20
2023-02-16T17:10:21.466Z,8.10
2023-02-16T17:12:52.889Z,8.10
2023-02-16T17:15:40.654Z,8.10
2023-02-16T17:18:10.733Z,8.00
2023-02-16T17:20:38.499Z,8.00
2023-02-16T17:23:06.256Z,8.00
2023-02-16T17:25:35.669Z,7.90
2023-02-16T17:28:04.660Z,7.80
2023-02-16T17:30:34.123Z,7.70
2023-02-16T17:33:02.282Z,7.60
2023-02-16T17:35:31.387Z,7.80
2023-02-16T17:37:59.538Z,7.60
2023-02-16T17:40:27.864Z,7.50
2023-02-16T17:42:55.716Z,7.50
2023-02-16T17:45:23.732Z,7.50
2023-02-16T17:47:53.735Z,7.50
2023-02-16T17:50:22.017Z,7.50
2023-02-16T17:52:49.855Z,7.40
2023-02-16T17:55:17.667Z,7.40
2023-02-16T17:57:45.445Z,7.40
2023-02-16T18:00:18.981Z,7.40
2023-02-16T18:02:47.577Z,7.40
2023-02-16T18:05:16.747Z,7.40
2023-02-16T18:07:44.531Z,7.30
2023-02-16T18:10:20.302Z,7.20
2023-02-16T18:12:48.082Z,7.10
2023-02-16T18:15:16.000Z,7.00
2023-02-16T18:17:43.779Z,6.90
2023-02-16T18:20:17.590Z,6.80
2023-02-16T18:22:45.374Z,6.70
2023-02-16T18:25:13.192Z,6.70
2023-02-16T18:27:41.070Z,6.70
2023-02-16T18:30:10.494Z,6.60
2023-02-16T18:32:38.314Z,6.60
2023-02-16T18:35:06.814Z,6.60
2023-02-16T18:37:36.166Z,6.60
2023-02-16T18:40:04.544Z,6.70
2023-02-16T18:42:32.378Z,6.70
2023-02-16T18:45:00.298Z,6.80
2023-02-16T18:47:28.668Z,6.80
2023-02-16T18:49:56.878Z,6.80
2023-02-16T18:52:25.236Z,6.80
2023-02-16T18:54:54.396Z,6.80
2023-02-16T18:57:22.677Z,6.80
2023-02-16T18:59:50.704Z,6.70
2023-02-16T19:02:18.466Z,6.60
2023-02-16T19:04:46.283Z,6.60
2023-02-16T19:07:14.278Z,6.50
2023-02-16T19:09:42.110Z,6.50
2023-02-16T19:12:11.261Z,6.50
2023-02-16T19:14:39.106Z,6.50
2023-02-16T19:17:06.883Z,6.40
2023-02-16T19:19:35.911Z,6.40
2023-02-16T19:22:03.971Z,6.40
2023-02-16T19:24:31.865Z,6.30
2023-02-16T19:26:59.654Z,6.30
2023-02-16T19:29:28.827Z,6.40
2023-02-16T19:31:56.731Z,6.30
2023-02-16T19:34:24.677Z,6.30
2023-02-16T19:36:52.518Z,6.30
2023-02-16T19:39:20.305Z,6.30
2023-02-16T19:41:48.122Z,6.40
2023-02-16T19:44:15.972Z,6.40
2023-02-16T19:46:45.140Z,6.40
2023-02-16T19:49:14.359Z,6.30
2023-02-16T19:51:42.206Z,6.30
2023-02-16T19:54:10.239Z,6.30
2023-02-16T19:56:40.396Z,6.40
2023-02-16T19:59:08.842Z,6.40
2023-02-16T20:01:36.749Z,6.40
2023-02-16T20:04:06.058Z,6.20
2023-02-16T20:06:37.164Z,6.50
2023-02-16T20:09:05.139Z,6.50
2023-02-16T20:11:33.105Z,6.50
2023-02-16T20:14:01.517Z,6.50
2023-02-16T20:16:30.147Z,6.50
2023-02-16T20:18:58.791Z,6.50
2023-02-16T20:21:29.794Z,6.50
2023-02-16T20:24:00.292Z,6.60
2023-02-16T20:26:30.601Z,6.60
2023-02-16T20:28:59.913Z,6.60
2023-02-16T20:31:30.055Z,6.70
2023-02-16T20:33:58.859Z,6.70
2023-02-16T20:36:28.050Z,6.70
2023-02-16T20:38:55.840Z,6.70
2023-02-16T20:41:24.045Z,6.70
2023-02-16T20:43:52.351Z,6.80
2023-02-16T20:46:20.572Z,6.80
2023-02-16T20:48:49.938Z,6.80
2023-02-16T20:51:18.325Z,6.80
2023-02-16T20:53:47.753Z,6.80
2023-02-16T20:56:20.459Z,6.80
2023-02-16T20:58:48.827Z,6.70
2023-02-16T21:01:20.209Z,6.70
2023-02-16T21:03:48.638Z,6.60
2023-02-16T21:06:16.854Z,6.50
2023-02-16T21:08:44.718Z,6.50
2023-02-16T21:11:14.160Z,6.50
2023-02-16T21:13:42.630Z,6.50
2023-02-16T21:16:11.717Z,6.50
2023-02-16T21:18:40.691Z,6.50
2023-02-16T21:21:08.984Z,6.50
2023-02-16T21:23:37.233Z,6.50
2023-02-16T21:26:06.731Z,6.50
2023-02-16T21:28:36.067Z,6.50
2023-02-16T21:31:06.317Z,6.40
2023-02-16T21:33:34.574Z,6.40
2023-02-16T21:36:07.388Z,6.40
2023-02-16T21:38:36.190Z,6.40
2023-02-16T21:41:28.485Z,6.40
2023-02-16T21:44:01.180Z,6.40
2023-02-16T21:46:30.908Z,6.40
2023-02-16T21:48:58.523Z,6.40
2023-02-16T21:51:28.845Z,6.40
2023-02-16T21:53:57.384Z,6.40
2023-02-16T21:56:30.050Z,6.40
2023-02-16T21:58:59.515Z,6.40
2023-02-16T22:01:30.344Z,6.40
2023-02-16T22:04:00.212Z,6.40
2023-02-16T22:06:30.028Z,6.50
2023-02-16T22:08:57.794Z,6.60
2023-02-16T22:11:25.849Z,6.60
2023-02-16T22:13:54.728Z,6.70
2023-02-16T22:16:24.904Z,6.70
2023-02-16T22:18:57.177Z,6.80
2023-02-16T22:21:25.096Z,6.80
2023-02-16T22:23:52.878Z,6.90
2023-02-16T22:26:23.541Z,7.00
2023-02-16T22:28:51.836Z,7.10
2023-02-16T22:31:20.760Z,7.10
2023-02-16T22:33:55.330Z,7.10
2023-02-16T22:36:23.101Z,7.20
2023-02-16T22:38:51.021Z,7.30
2023-02-16T22:41:18.809Z,7.30
2023-02-16T22:43:46.634Z,7.40
2023-02-16T22:46:16.794Z,7.30
2023-02-16T22:48:45.208Z,7.30
2023-02-16T22:51:16.076Z,7.20
2023-02-16T22:53:43.997Z,7.10
2023-02-16T22:56:14.509Z,7.00
2023-02-16T22:58:42.609Z,6.80
2023-02-16T23:01:13.027Z,6.70
2023-02-16T23:03:41.532Z,6.70
2023-02-16T23:06:16.068Z,6.50
2023-02-16T23:08:44.256Z,6.50
2023-02-16T23:11:13.152Z,6.40
2023-02-16T23:13:40.968Z,6.40
2023-02-16T23:16:11.581Z,6.40
2023-02-16T23:18:39.466Z,6.30
2023-02-16T23:21:08.762Z,6.30
2023-02-16T23:23:38.080Z,6.30
2023-02-16T23:26:07.472Z,6.20
2023-02-16T23:28:36.269Z,6.20
2023-02-16T23:31:04.357Z,6.10
2023-02-16T23:33:32.210Z,6.00
2023-02-16T23:36:00.297Z,5.90
2023-02-16T23:38:28.213Z,5.80
2023-02-16T23:40:58.453Z,5.70
2023-02-16T23:43:27.183Z,5.60
2023-02-16T23:45:55.297Z,5.50
2023-02-16T23:48:23.465Z,5.50
2023-02-16T23:50:51.727Z,5.40
2023-02-16T23:53:20.000Z,5.40
2023-02-16T23:55:59.446Z,5.40
2023-02-16T23:58:28.334Z,5.40
